createdAt,value
2018-07-14T00:01:08.379Z,8.83
2018-07-14T00:03:36.655Z,9.27
2018-07-14T00:06:05.020Z,9.93
2018-07-14T00:08:33.303Z,8.60
2018-07-14T00:11:01.635Z,9.40
2018-07-14T00:13:29.908Z,14.13
2018-07-14T00:15:58.224Z,8.20
2018-07-14T00:18:26.875Z,9.43
2018-07-14T00:20:55.182Z,8.90
2018-07-14T00:23:23.488Z,9.63
2018-07-14T00:25:57.187Z,11.40
2018-07-14T00:28:25.459Z,9.53
2018-07-14T00:30:53.717Z,8.10
2018-07-14T00:33:21.989Z,8.67
2018-07-14T00:35:50.347Z,8.10
2018-07-14T00:38:18.628Z,8.60
2018-07-14T00:40:47.034Z,9.50
2018-07-14T00:43:15.293Z,9.40
2018-07-14T00:45:43.576Z,10.63
2018-07-14T00:48:11.810Z,8.97
2018-07-14T00:50:40.142Z,9.10
2018-07-14T00:53:08.567Z,8.70
2018-07-14T00:55:37.094Z,9.73
2018-07-14T00:58:05.412Z,8.73
2018-07-14T01:00:33.665Z,8.30
2018-07-14T01:03:01.922Z,8.17
2018-07-14T01:05:30.302Z,8.73
2018-07-14T01:07:58.578Z,12.43
2018-07-14T01:10:26.918Z,10.33
2018-07-14T01:12:55.235Z,9.37
2018-07-14T01:15:23.510Z,9.00
2018-07-14T01:17:51.797Z,9.37
2018-07-14T01:20:20.078Z,9.40
2018-07-14T01:22:48.318Z,9.50
2018-07-14T01:25:16.620Z,11.33
2018-07-14T01:27:44.950Z,8.93
2018-07-14T01:30:13.220Z,10.73
2018-07-14T01:32:41.555Z,8.70
2018-07-14T01:35:10.021Z,8.83
2018-07-14T01:37:38.298Z,9.13
2018-07-14T01:40:06.589Z,9.67
2018-07-14T01:42:34.566Z,8.90
2018-07-14T01:45:02.792Z,10.13
2018-07-14T01:47:31.010Z,9.33
2018-07-14T01:49:59.274Z,10.37
2018-07-14T01:52:27.549Z,9.93
2018-07-14T01:54:55.774Z,9.50
2018-07-14T01:57:24.005Z,9.67
2018-07-14T01:59:52.279Z,8.67
2018-07-14T02:02:20.551Z,8.50
2018-07-14T02:04:48.800Z,8.40
2018-07-14T02:07:17.206Z,9.13
2018-07-14T02:09:45.487Z,9.93
2018-07-14T02:12:13.862Z,9.33
2018-07-14T02:14:42.241Z,10.53
2018-07-14T02:17:10.496Z,10.93
2018-07-14T02:19:38.791Z,10.50
2018-07-14T02:22:07.103Z,10.77
2018-07-14T02:24:35.411Z,10.07
2018-07-14T02:27:03.798Z,9.60
2018-07-14T02:29:32.066Z,9.50
2018-07-14T02:32:00.341Z,9.60
2018-07-14T02:34:28.653Z,10.13
2018-07-14T02:36:56.936Z,9.33
2018-07-14T02:39:25.214Z,11.77
2018-07-14T02:41:53.488Z,10.10
2018-07-14T02:44:21.763Z,9.80
2018-07-14T02:46:50.101Z,10.17
2018-07-14T02:49:18.390Z,9.90
2018-07-14T02:51:46.666Z,10.83
2018-07-14T02:54:14.968Z,10.97
2018-07-14T02:56:43.247Z,10.47
2018-07-14T02:59:11.527Z,11.07
2018-07-14T03:01:39.992Z,10.53
2018-07-14T03:04:08.233Z,10.30
2018-07-14T03:06:36.548Z,10.63
2018-07-14T03:09:06.375Z,12.30
2018-07-14T03:11:34.659Z,11.10
2018-07-14T03:14:02.971Z,11.03
2018-07-14T03:16:31.287Z,11.70
2018-07-14T03:18:59.566Z,11.03
2018-07-14T03:21:27.836Z,10.30
2018-07-14T03:23:56.140Z,12.10
2018-07-14T03:26:24.183Z,13.30
2018-07-14T03:28:52.538Z,11.23
2018-07-14T03:31:20.842Z,10.30
2018-07-14T03:33:49.167Z,11.30
2018-07-14T03:36:17.498Z,11.80
2018-07-14T03:38:45.764Z,10.90
2018-07-14T03:41:14.038Z,11.57
2018-07-14T03:43:42.379Z,10.23
2018-07-14T03:46:10.703Z,10.63
2018-07-14T03:48:39.086Z,10.27
2018-07-14T03:51:08.067Z,11.27
2018-07-14T03:53:36.446Z,10.17
2018-07-14T03:56:05.155Z,11.17
2018-07-14T03:58:33.515Z,10.87
2018-07-14T04:01:01.791Z,10.90
2018-07-14T04:03:30.170Z,12.40
2018-07-14T04:05:58.242Z,10.67
2018-07-14T04:08:26.574Z,12.10
2018-07-14T04:10:54.855Z,11.00
2018-07-14T04:13:23.144Z,10.77
2018-07-14T04:15:52.272Z,12.63
2018-07-14T04:18:20.546Z,11.60
2018-07-14T04:20:48.813Z,16.53
2018-07-14T04:23:17.098Z,12.67
2018-07-14T04:25:45.394Z,11.80
2018-07-14T04:28:13.647Z,11.40
2018-07-14T04:30:41.898Z,11.50
2018-07-14T04:33:10.122Z,12.30
2018-07-14T04:35:38.364Z,13.60
2018-07-14T04:38:07.233Z,14.83
2018-07-14T04:40:35.531Z,15.27
2018-07-14T04:43:03.822Z,12.17
2018-07-14T04:45:32.090Z,13.93
2018-07-14T04:48:00.374Z,14.37
2018-07-14T04:50:28.755Z,12.27
2018-07-14T04:52:57.016Z,12.10
2018-07-14T04:55:25.311Z,13.00
2018-07-14T04:57:53.350Z,13.07
2018-07-14T05:00:21.642Z,11.87
2018-07-14T05:02:49.919Z,12.13
2018-07-14T05:05:18.198Z,12.37
2018-07-14T05:07:46.485Z,11.60
2018-07-14T05:10:15.569Z,14.40
2018-07-14T05:12:43.844Z,12.00
2018-07-14T05:15:12.119Z,12.27
2018-07-14T05:17:40.390Z,13.43
2018-07-14T05:20:08.667Z,11.50
2018-07-14T05:22:36.953Z,13.27
2018-07-14T05:25:05.395Z,11.33
2018-07-14T05:27:33.886Z,11.27
2018-07-14T05:30:02.178Z,11.60
2018-07-14T05:32:30.470Z,15.37
2018-07-14T05:34:58.736Z,12.50
2018-07-14T05:37:27.006Z,12.80
2018-07-14T05:39:55.262Z,12.70
2018-07-14T05:42:23.581Z,13.17
2018-07-14T05:44:51.952Z,12.90
2018-07-14T05:47:20.276Z,15.97
2018-07-14T05:49:48.764Z,12.70
2018-07-14T05:52:17.081Z,12.13
2018-07-14T05:54:45.355Z,11.83
2018-07-14T05:57:13.740Z,17.27
2018-07-14T05:59:42.004Z,11.70
2018-07-14T06:02:10.303Z,12.00
2018-07-14T06:04:38.553Z,11.20
2018-07-14T06:07:06.901Z,10.33
2018-07-14T06:09:35.174Z,11.43
2018-07-14T06:12:03.475Z,11.07
2018-07-14T06:14:31.726Z,11.07
2018-07-14T06:17:00.046Z,9.43
2018-07-14T06:19:28.318Z,10.60
2018-07-14T06:21:56.691Z,11.27
2018-07-14T06:24:24.976Z,10.63
2018-07-14T06:26:53.247Z,9.70
2018-07-14T06:29:21.530Z,10.87
2018-07-14T06:31:49.852Z,9.67
2018-07-14T06:34:18.096Z,10.03
2018-07-14T06:36:46.322Z,10.00
2018-07-14T06:39:14.630Z,9.60
2018-07-14T06:41:43.008Z,8.83
2018-07-14T06:44:11.243Z,9.93
2018-07-14T06:46:39.495Z,10.20
2018-07-14T06:49:07.730Z,9.80
2018-07-14T06:51:35.982Z,9.33
2018-07-14T06:54:05.151Z,12.43
2018-07-14T06:56:35.068Z,8.87
2018-07-14T06:59:03.371Z,9.73
2018-07-14T07:01:31.689Z,12.73
2018-07-14T07:03:59.975Z,10.23
2018-07-14T07:06:28.233Z,10.00
2018-07-14T07:08:56.797Z,12.60
2018-07-14T07:11:25.099Z,13.20
2018-07-14T07:13:53.375Z,13.37
2018-07-14T07:16:21.701Z,11.57
2018-07-14T07:18:49.999Z,11.73
2018-07-14T07:21:18.381Z,11.80
2018-07-14T07:23:46.700Z,11.17
2018-07-14T07:26:15.054Z,11.63
2018-07-14T07:28:43.411Z,11.43
2018-07-14T07:31:11.699Z,18.60
2018-07-14T07:33:39.992Z,12.23
2018-07-14T07:36:08.269Z,11.97
2018-07-14T07:38:36.529Z,10.70
2018-07-14T07:41:04.871Z,11.50
2018-07-14T07:43:33.995Z,10.73
2018-07-14T07:46:02.296Z,10.80
2018-07-14T07:48:30.558Z,10.00
2018-07-14T07:50:58.928Z,10.33
2018-07-14T07:53:27.280Z,10.87
2018-07-14T07:55:55.617Z,10.50
2018-07-14T07:58:23.891Z,11.30
2018-07-14T08:00:52.264Z,11.43
2018-07-14T08:03:20.573Z,9.97
2018-07-14T08:05:49.065Z,12.00
2018-07-14T08:08:17.351Z,10.23
2018-07-14T08:10:45.705Z,9.60
2018-07-14T08:13:14.045Z,10.40
2018-07-14T08:15:42.433Z,8.87
2018-07-14T08:18:10.895Z,10.47
2018-07-14T08:20:39.252Z,10.73
2018-07-14T08:23:07.679Z,9.70
2018-07-14T08:25:35.911Z,8.70
2018-07-14T08:28:04.245Z,10.73
2018-07-14T08:30:32.532Z,9.07
2018-07-14T08:33:00.859Z,9.70
2018-07-14T08:35:29.399Z,10.43
2018-07-14T08:37:57.843Z,9.93
2018-07-14T08:40:26.463Z,10.10
2018-07-14T08:42:54.847Z,8.30
2018-07-14T08:45:23.320Z,10.30
2018-07-14T08:47:51.628Z,10.20
2018-07-14T08:50:19.979Z,9.57
2018-07-14T08:52:48.387Z,9.23
2018-07-14T08:55:16.755Z,8.63
2018-07-14T08:57:45.143Z,8.73
2018-07-14T09:00:13.431Z,9.07
2018-07-14T09:02:42.326Z,7.73
2018-07-14T09:05:10.590Z,7.17
2018-07-14T09:07:38.931Z,8.00
2018-07-14T09:10:07.435Z,9.03
2018-07-14T09:12:35.643Z,8.70
2018-07-14T09:15:04.014Z,8.17
2018-07-14T09:17:32.390Z,6.93
2018-07-14T09:20:00.730Z,9.00
2018-07-14T09:22:29.349Z,8.50
2018-07-14T09:24:57.627Z,10.47
2018-07-14T09:27:25.916Z,11.30
2018-07-14T09:29:55.642Z,11.20
2018-07-14T09:32:23.990Z,10.43
2018-07-14T09:34:52.386Z,10.30
2018-07-14T09:37:20.929Z,12.90
2018-07-14T09:39:49.593Z,10.80
2018-07-14T09:42:18.363Z,12.13
2018-07-14T09:44:47.109Z,10.80
2018-07-14T09:47:16.392Z,9.93
2018-07-14T09:49:44.815Z,10.23
2018-07-14T09:52:13.090Z,9.50
2018-07-14T09:54:41.335Z,15.63
2018-07-14T09:57:09.610Z,9.73
2018-07-14T09:59:38.857Z,8.90
2018-07-14T10:02:07.471Z,10.70
2018-07-14T10:04:35.723Z,7.93
2018-07-14T10:07:04.103Z,9.30
2018-07-14T10:09:32.326Z,9.47
2018-07-14T10:12:00.696Z,8.60
2018-07-14T10:14:28.977Z,9.00
2018-07-14T10:16:58.008Z,8.00
2018-07-14T10:19:26.351Z,8.10
2018-07-14T10:21:55.663Z,8.50
2018-07-14T10:24:23.947Z,9.60
2018-07-14T10:26:52.657Z,8.97
2018-07-14T10:29:20.886Z,8.03
2018-07-14T10:31:50.175Z,8.70
2018-07-14T10:34:18.452Z,8.03
2018-07-14T10:36:46.963Z,8.60
2018-07-14T10:39:15.347Z,8.37
2018-07-14T10:41:43.695Z,7.47
2018-07-14T10:44:12.281Z,8.53
2018-07-14T10:46:40.626Z,7.47
2018-07-14T10:49:08.820Z,8.33
2018-07-14T10:51:37.219Z,8.43
2018-07-14T10:54:05.397Z,8.03
2018-07-14T10:56:33.659Z,8.13
2018-07-14T10:59:01.971Z,7.63
2018-07-14T11:01:30.202Z,7.13
2018-07-14T11:03:58.478Z,7.80
2018-07-14T11:06:27.787Z,8.80
2018-07-14T11:08:56.125Z,7.67
2018-07-14T11:11:24.450Z,10.37
2018-07-14T11:13:52.909Z,6.60
2018-07-14T11:16:21.169Z,5.20
2018-07-14T11:18:49.541Z,5.57
2018-07-14T11:21:18.437Z,6.37
2018-07-14T11:23:46.835Z,6.80
2018-07-14T11:26:15.080Z,6.60
2018-07-14T11:28:43.473Z,6.20
2018-07-14T11:31:11.784Z,10.50
2018-07-14T11:33:40.164Z,5.20
2018-07-14T11:36:08.459Z,5.97
2018-07-14T11:38:36.793Z,5.80
2018-07-14T11:41:05.089Z,6.53
2018-07-14T11:43:33.368Z,6.37
2018-07-14T11:46:01.777Z,7.33
2018-07-14T11:48:30.178Z,5.90
2018-07-14T11:50:58.487Z,7.00
2018-07-14T11:53:26.835Z,6.93
2018-07-14T11:55:55.163Z,7.07
2018-07-14T11:58:23.395Z,7.50
2018-07-14T12:00:51.721Z,7.03
2018-07-14T12:03:20.394Z,7.77
2018-07-14T12:05:48.843Z,8.57
2018-07-14T12:08:17.391Z,7.30
2018-07-14T12:10:45.846Z,6.90
2018-07-14T12:13:14.917Z,7.60
2018-07-14T12:15:43.185Z,7.30
2018-07-14T12:18:11.447Z,7.70
2018-07-14T12:20:39.743Z,7.20
2018-07-14T12:23:08.118Z,7.00
2018-07-14T12:25:36.404Z,6.63
2018-07-14T12:28:04.691Z,6.97
2018-07-14T12:30:32.936Z,7.10
2018-07-14T12:33:01.214Z,6.80
2018-07-14T12:35:29.995Z,6.40
2018-07-14T12:37:58.258Z,6.70
2018-07-14T12:40:27.163Z,7.30
2018-07-14T12:42:55.462Z,9.47
2018-07-14T12:45:24.650Z,6.80
2018-07-14T12:47:52.926Z,6.90
2018-07-14T12:50:21.202Z,7.23
2018-07-14T12:52:49.559Z,6.33
2018-07-14T12:55:17.988Z,7.23
2018-07-14T12:57:46.248Z,6.40
2018-07-14T13:00:14.559Z,6.93
2018-07-14T13:02:42.814Z,6.90
2018-07-14T13:05:11.083Z,6.83
2018-07-14T13:07:39.386Z,6.70
2018-07-14T13:10:08.120Z,7.03
2018-07-14T13:12:36.816Z,6.60
2018-07-14T13:15:05.963Z,6.83
2018-07-14T13:17:34.298Z,6.33
2018-07-14T13:20:02.579Z,6.97
2018-07-14T13:22:30.899Z,5.63
2018-07-14T13:24:59.190Z,7.27
2018-07-14T13:27:28.110Z,6.70
2018-07-14T13:29:56.413Z,6.40
2018-07-14T13:32:24.654Z,6.70
2018-07-14T13:34:52.914Z,7.27
2018-07-14T13:37:21.325Z,6.63
2018-07-14T13:39:50.213Z,6.70
2018-07-14T13:42:18.503Z,6.60
2018-07-14T13:44:47.391Z,5.87
2018-07-14T13:47:15.705Z,6.80
2018-07-14T13:49:43.915Z,5.93
2018-07-14T13:52:12.220Z,5.60
2018-07-14T13:54:40.467Z,6.10
2018-07-14T13:57:08.860Z,5.73
2018-07-14T13:59:37.120Z,5.13
2018-07-14T14:02:05.530Z,5.90
2018-07-14T14:04:33.791Z,5.63
2018-07-14T14:07:02.050Z,4.73
2018-07-14T14:09:30.329Z,5.00
2018-07-14T14:11:58.778Z,4.60
2018-07-14T14:14:27.288Z,4.87
2018-07-14T14:17:02.638Z,4.50
2018-07-14T14:19:30.926Z,4.67
2018-07-14T14:21:59.306Z,4.93
2018-07-14T14:24:27.584Z,6.03
2018-07-14T14:26:55.854Z,5.13
2018-07-14T14:29:24.206Z,5.43
2018-07-14T14:34:27.582Z,5.07
2018-07-14T14:36:55.934Z,5.13
2018-07-14T14:39:24.190Z,5.53
2018-07-14T14:41:52.467Z,4.70
2018-07-14T14:44:20.722Z,4.70
2018-07-14T14:46:49.034Z,6.37
2018-07-14T14:49:17.283Z,4.40
2018-07-14T14:51:45.623Z,6.07
2018-07-14T14:54:13.854Z,7.23
2018-07-14T14:56:42.138Z,5.57
2018-07-14T14:59:10.505Z,6.17
2018-07-14T15:01:39.204Z,7.23
2018-07-14T15:04:07.696Z,7.00
2018-07-14T15:06:35.963Z,7.00
2018-07-14T15:09:05.104Z,6.53
2018-07-14T15:11:33.376Z,7.23
2018-07-14T15:14:01.618Z,7.20
2018-07-14T15:16:29.993Z,7.00
2018-07-14T15:18:58.262Z,7.17
2018-07-14T15:21:26.880Z,7.23
2018-07-14T15:23:55.176Z,6.30
2018-07-14T15:26:23.815Z,10.33
2018-07-14T15:28:52.083Z,7.43
2018-07-14T15:31:20.364Z,8.40
2018-07-14T15:33:48.653Z,7.50
2018-07-14T15:36:16.925Z,7.73
2018-07-14T15:38:45.198Z,7.73
2018-07-14T15:41:13.452Z,6.90
2018-07-14T15:43:41.850Z,9.60
2018-07-14T15:46:10.083Z,9.30
2018-07-14T15:48:38.458Z,7.63
2018-07-14T15:51:06.840Z,8.97
2018-07-14T15:53:35.134Z,8.53
2018-07-14T15:56:03.386Z,7.17
2018-07-14T15:58:31.655Z,7.43
2018-07-14T16:01:06.241Z,6.70
2018-07-14T16:03:34.494Z,7.07
2018-07-14T16:06:02.772Z,9.43
2018-07-14T16:08:31.105Z,7.27
2018-07-14T16:10:59.431Z,6.20
2018-07-14T16:13:27.734Z,7.37
2018-07-14T16:15:56.188Z,7.03
2018-07-14T16:18:24.426Z,7.00
2018-07-14T16:20:52.641Z,7.13
2018-07-14T16:23:20.944Z,8.60
2018-07-14T16:25:49.273Z,7.07
2018-07-14T16:28:18.372Z,6.77
2018-07-14T16:30:46.626Z,6.67
2018-07-14T16:33:14.923Z,7.70
2018-07-14T16:35:43.044Z,8.27
2018-07-14T16:38:11.168Z,7.80
2018-07-14T16:40:39.418Z,10.00
2018-07-14T16:43:07.749Z,9.20
2018-07-14T16:45:36.068Z,7.47
2018-07-14T16:48:04.852Z,7.27
2018-07-14T16:50:33.142Z,7.73
2018-07-14T16:53:01.453Z,6.90
2018-07-14T16:55:29.788Z,7.87
2018-07-14T16:58:00.837Z,7.00
2018-07-14T17:00:29.214Z,7.03
2018-07-14T17:02:57.540Z,7.93
2018-07-14T17:05:26.693Z,11.40
2018-07-14T17:07:54.952Z,8.20
2018-07-14T17:10:23.538Z,7.20
2018-07-14T17:12:51.946Z,9.17
2018-07-14T17:15:20.222Z,13.73
2018-07-14T17:17:48.497Z,8.57
2018-07-14T17:20:16.783Z,7.20
2018-07-14T17:22:45.055Z,8.70
2018-07-14T17:25:13.453Z,6.23
2018-07-14T17:27:41.707Z,7.37
2018-07-14T17:30:09.998Z,7.50
2018-07-14T17:32:38.270Z,6.10
2018-07-14T17:35:06.682Z,6.83
2018-07-14T17:37:34.906Z,7.20
2018-07-14T17:40:03.185Z,6.03
2018-07-14T17:42:31.413Z,6.70
2018-07-14T17:44:59.690Z,6.30
2018-07-14T17:47:27.918Z,6.33
2018-07-14T17:49:56.217Z,7.03
2018-07-14T17:52:24.531Z,6.80
2018-07-14T17:54:52.814Z,6.53
2018-07-14T17:57:21.004Z,7.33
2018-07-14T17:59:49.321Z,8.10
2018-07-14T18:02:17.574Z,20.73
2018-07-14T18:04:45.854Z,9.37
2018-07-14T18:07:14.139Z,8.33
2018-07-14T18:09:42.510Z,8.20
2018-07-14T18:12:10.786Z,13.57
2018-07-14T18:14:39.119Z,7.53
2018-07-14T18:17:07.206Z,11.03
2018-07-14T18:19:35.518Z,7.43
2018-07-14T18:22:03.774Z,8.60
2018-07-14T18:24:32.058Z,6.50
2018-07-14T18:27:00.331Z,8.40
2018-07-14T18:29:28.626Z,10.90
2018-07-14T18:31:56.883Z,10.63
2018-07-14T18:34:25.172Z,10.47
2018-07-14T18:36:53.475Z,8.27
2018-07-14T18:39:21.839Z,7.97
2018-07-14T18:41:50.296Z,8.40
2018-07-14T18:44:18.570Z,9.43
2018-07-14T18:46:46.918Z,9.67
2018-07-14T18:49:15.217Z,10.67
2018-07-14T18:51:43.807Z,13.33
2018-07-14T18:54:12.170Z,10.00
2018-07-14T18:56:40.473Z,12.90
2018-07-14T18:59:08.748Z,21.00
2018-07-14T19:01:37.033Z,311.97
2018-07-14T19:04:05.569Z,217.33
2018-07-14T19:06:33.858Z,158.03
2018-07-14T19:09:02.242Z,102.23
2018-07-14T19:11:30.503Z,135.00
2018-07-14T19:13:58.734Z,53.23
2018-07-14T19:16:26.971Z,17.30
2018-07-14T19:18:55.195Z,11.30
2018-07-14T19:21:23.444Z,11.97
2018-07-14T19:23:51.720Z,10.13
2018-07-14T19:26:20.101Z,9.80
2018-07-14T19:28:48.336Z,8.53
2018-07-14T19:31:16.831Z,7.53
2018-07-14T19:33:45.225Z,9.20
2018-07-14T19:36:13.509Z,9.40
2018-07-14T19:38:41.831Z,9.17
2018-07-14T19:41:10.062Z,9.60
2018-07-14T19:43:38.342Z,7.87
2018-07-14T19:46:06.611Z,8.87
2018-07-14T19:48:34.898Z,8.80
2018-07-14T19:51:03.277Z,9.50
2018-07-14T19:53:31.593Z,9.83
2018-07-14T19:55:59.933Z,8.70
2018-07-14T19:58:28.154Z,7.80
2018-07-14T20:00:56.470Z,8.47
2018-07-14T20:03:24.762Z,8.90
2018-07-14T20:05:53.104Z,8.27
2018-07-14T20:08:21.406Z,10.87
2018-07-14T20:10:50.680Z,6.80
2018-07-14T20:13:19.031Z,8.97
2018-07-14T20:15:47.443Z,9.23
2018-07-14T20:18:16.752Z,8.07
2018-07-14T20:20:45.736Z,8.37
2018-07-14T20:23:14.030Z,8.53
2018-07-14T20:25:42.394Z,8.13
2018-07-14T20:28:10.667Z,7.67
2018-07-14T20:30:39.059Z,9.00
2018-07-14T20:33:07.426Z,8.60
2018-07-14T20:35:35.731Z,9.73
2018-07-14T20:38:04.020Z,9.80
2018-07-14T20:40:32.144Z,9.67
2018-07-14T20:43:01.232Z,10.07
2018-07-14T20:45:29.521Z,9.37
2018-07-14T20:47:57.914Z,9.50
2018-07-14T20:50:27.187Z,11.00
2018-07-14T20:52:55.444Z,8.70
2018-07-14T20:55:23.690Z,8.73
2018-07-14T20:57:52.042Z,10.33
2018-07-14T21:00:20.994Z,9.07
2018-07-14T21:02:49.411Z,10.10
2018-07-14T21:05:17.688Z,11.93
2018-07-14T21:07:46.071Z,10.03
2018-07-14T21:10:14.936Z,9.10
2018-07-14T21:12:44.271Z,9.90
2018-07-14T21:15:12.536Z,10.17
2018-07-14T21:17:42.425Z,10.80
2018-07-14T21:20:11.723Z,10.70
2018-07-14T21:22:40.135Z,11.13
2018-07-14T21:25:08.368Z,11.37
2018-07-14T21:27:36.637Z,10.37
2018-07-14T21:30:04.914Z,11.07
2018-07-14T21:32:33.792Z,11.00
2018-07-14T21:35:03.194Z,12.03
2018-07-14T21:37:31.435Z,11.53
2018-07-14T21:39:59.759Z,12.37
2018-07-14T21:42:27.855Z,12.10
2018-07-14T21:44:56.146Z,12.23
2018-07-14T21:47:24.414Z,14.00
2018-07-14T21:49:52.678Z,11.53
2018-07-14T21:52:20.922Z,11.77
2018-07-14T21:54:49.588Z,13.10
2018-07-14T21:57:17.823Z,13.10
2018-07-14T21:59:46.087Z,12.80
2018-07-14T22:02:14.448Z,12.13
2018-07-14T22:04:42.799Z,12.40
2018-07-14T22:07:11.034Z,12.47
2018-07-14T22:09:39.314Z,12.53
2018-07-14T22:12:07.348Z,11.07
2018-07-14T22:14:35.559Z,10.63
2018-07-14T22:17:03.965Z,12.03
2018-07-14T22:19:32.403Z,15.03
2018-07-14T22:22:00.709Z,12.03
2018-07-14T22:24:29.077Z,12.93
2018-07-14T22:26:57.453Z,11.83
2018-07-14T22:29:25.798Z,12.87
2018-07-14T22:31:53.983Z,13.43
2018-07-14T22:34:22.273Z,12.60
2018-07-14T22:36:50.511Z,13.30
2018-07-14T22:39:18.737Z,13.37
2018-07-14T22:41:48.601Z,14.53
2018-07-14T22:44:17.598Z,13.90
2018-07-14T22:46:45.811Z,13.43
2018-07-14T22:49:14.180Z,14.30
2018-07-14T22:51:42.471Z,13.13
2018-07-14T22:54:10.787Z,13.40
2018-07-14T22:56:39.105Z,13.73
2018-07-14T22:59:07.386Z,14.07
2018-07-14T23:01:35.676Z,15.07
2018-07-14T23:04:04.043Z,13.93
2018-07-14T23:06:32.365Z,14.67
2018-07-14T23:09:00.685Z,13.90
2018-07-14T23:11:28.970Z,13.63
2018-07-14T23:13:57.235Z,12.30
2018-07-14T23:16:25.616Z,12.93
2018-07-14T23:18:53.943Z,13.97
2018-07-14T23:21:22.246Z,14.47
2018-07-14T23:23:50.646Z,16.17
2018-07-14T23:26:19.064Z,16.37
2018-07-14T23:28:47.395Z,15.10
2018-07-14T23:31:15.619Z,17.00
2018-07-14T23:33:43.884Z,15.20
2018-07-14T23:36:12.156Z,15.27
2018-07-14T23:38:40.196Z,17.17
2018-07-14T23:41:08.505Z,16.50
2018-07-14T23:43:36.783Z,15.87
2018-07-14T23:46:05.167Z,18.60
2018-07-14T23:48:33.486Z,18.40
2018-07-14T23:51:01.815Z,18.73
2018-07-14T23:53:30.164Z,17.50
2018-07-14T23:55:58.462Z,16.43
2018-07-14T23:58:26.635Z,14.67
